Aérodrome :
LOGIN :

S'inscrire | Disclaimer

   EN    FR    IT 

 










Légende :    VFR   VFR Marginal   IFR   IFR Intensif   IFR Très Intensif
Visi : 
Plafond : 
>= 8 km
>= 3000ft
5 à 8 km
1000 à 3000 ft
1500m à 5 km
500 à 1000 ft
800 à 1500m
200 à 500 ft
< 800m
< 200 ft
Symboles :   Orages  Brouillard  Fortes neiges  Fortes précipitations  Vent > 20 kt
SIGMETs :   Divers  Orages  Givrage  Turbulence  Onde Orograph.  Cendres Volcan.






- Altitude de l'aérodrome : 616 ft
- Code IATA : PUF


LFBP - Pau

DERNIER METAR :
  • 141330Z AUTO 28009KT 240V310 9999 BKN038 BKN047 BKN140 22/14 Q1020 NOSIG

METARs EXPIRÉS :
  • 141300Z AUTO 26010KT 230V300 9999 BKN038 BKN044 22/14 Q1020 NOSIG
  • 141230Z AUTO 28008KT 240V300 9999 BKN039 BKN180 22/14 Q1020 NOSIG
  • 141200Z AUTO 28008KT 240V310 9999 FEW039 22/15 Q1020 NOSIG
  • 141130Z AUTO 28008KT 250V310 9999 SCT037 BKN190 BKN210 22/14 Q1020 NOSIG
  • 141100Z AUTO 27007KT 240V300 9999 FEW036 SCT220 22/13 Q1020 NOSIG

TAF TAF LFBP
Valide du 14 à 12h jusqu'au 15 à 12h UTC


141100Z 1412/1512 30010KT 9999 SCT035
BECMG 1412/1414 CAVOK
BECMG 1500/1502 24005KT BKN020
PROB30
TEMPO 1504/1512 -RA BKN014



MET'MAP, la Météo Aéronautique d'un coup d'oeil ! - Copyright ORBIFLY Décembre 2007 - Disclaimer

ORBIFLY MET'MAP TEAM :

Programmation & Développement : Alexandra Zaïnal
Sur une idée originale de : Baudouin d'Aumeries
Assistance à la programmation : Marc-Olivier Méhu
Soutien technique & logistique : Manuel Goepfert

Contact : metmap@orbifly.com




SOURCES & CREDITS :

   NOAA